sensor_id;sensor_type;location;lat;lon;timestamp;P1;durP1;ratioP1;P2;durP2;ratioP2
14394;SDS011;7282;49.204;10.652;2023-04-28T00:00:02;8.73;;;6.87;;
14394;SDS011;7282;49.204;10.652;2023-04-28T00:02:29;8.43;;;6.57;;
14394;SDS011;7282;49.204;10.652;2023-04-28T00:04:56;7.23;;;6.10;;
14394;SDS011;7282;49.204;10.652;2023-04-28T00:07:23;6.53;;;5.93;;
14394;SDS011;7282;49.204;10.652;2023-04-28T00:09:50;7.07;;;6.37;;
14394;SDS011;7282;49.204;10.652;2023-04-28T00:12:16;6.60;;;5.90;;
14394;SDS011;7282;49.204;10.652;2023-04-28T00:14:43;7.13;;;6.50;;
14394;SDS011;7282;49.204;10.652;2023-04-28T00:17:10;9.07;;;7.80;;
14394;SDS011;7282;49.204;10.652;2023-04-28T00:19:37;10.73;;;7.87;;
14394;SDS011;7282;49.204;10.652;2023-04-28T00:22:03;9.60;;;8.30;;
14394;SDS011;7282;49.204;10.652;2023-04-28T00:24:31;8.97;;;8.07;;
14394;SDS011;7282;49.204;10.652;2023-04-28T00:26:58;9.33;;;8.33;;
14394;SDS011;7282;49.204;10.652;2023-04-28T00:29:27;11.07;;;8.43;;
14394;SDS011;7282;49.204;10.652;2023-04-28T00:31:53;10.13;;;8.67;;
14394;SDS011;7282;49.204;10.652;2023-04-28T00:34:20;9.60;;;7.60;;
14394;SDS011;7282;49.204;10.652;2023-04-28T00:36:47;7.53;;;6.77;;
14394;SDS011;7282;49.204;10.652;2023-04-28T00:39:14;8.87;;;7.87;;
14394;SDS011;7282;49.204;10.652;2023-04-28T00:41:43;9.43;;;7.93;;
14394;SDS011;7282;49.204;10.652;2023-04-28T00:44:10;8.97;;;8.17;;
14394;SDS011;7282;49.204;10.652;2023-04-28T00:46:36;8.90;;;7.17;;
14394;SDS011;7282;49.204;10.652;2023-04-28T00:49:03;9.43;;;7.87;;
14394;SDS011;7282;49.204;10.652;2023-04-28T00:51:30;8.37;;;7.43;;
14394;SDS011;7282;49.204;10.652;2023-04-28T00:53:58;8.77;;;7.83;;
14394;SDS011;7282;49.204;10.652;2023-04-28T00:56:25;10.10;;;8.23;;
14394;SDS011;7282;49.204;10.652;2023-04-28T00:58:52;10.47;;;8.57;;
14394;SDS011;7282;49.204;10.652;2023-04-28T01:01:19;9.50;;;8.20;;
14394;SDS011;7282;49.204;10.652;2023-04-28T01:03:46;9.63;;;7.87;;
14394;SDS011;7282;49.204;10.652;2023-04-28T01:06:12;8.77;;;7.87;;
14394;SDS011;7282;49.204;10.652;2023-04-28T01:08:40;9.63;;;8.37;;
14394;SDS011;7282;49.204;10.652;2023-04-28T01:11:07;9.47;;;8.47;;
14394;SDS011;7282;49.204;10.652;2023-04-28T01:13:35;8.47;;;7.57;;
14394;SDS011;7282;49.204;10.652;2023-04-28T01:16:02;8.73;;;7.83;;
14394;SDS011;7282;49.204;10.652;2023-04-28T01:18:29;8.63;;;7.73;;
14394;SDS011;7282;49.204;10.652;2023-04-28T01:20:57;8.53;;;7.67;;
14394;SDS011;7282;49.204;10.652;2023-04-28T01:23:24;9.57;;;7.90;;
14394;SDS011;7282;49.204;10.652;2023-04-28T01:25:51;9.43;;;8.40;;
14394;SDS011;7282;49.204;10.652;2023-04-28T01:28:17;10.33;;;8.07;;
14394;SDS011;7282;49.204;10.652;2023-04-28T01:30:44;10.50;;;8.20;;
14394;SDS011;7282;49.204;10.652;2023-04-28T01:33:11;7.90;;;7.10;;
14394;SDS011;7282;49.204;10.652;2023-04-28T01:35:37;8.53;;;7.63;;
14394;SDS011;7282;49.204;10.652;2023-04-28T01:38:04;8.37;;;7.57;;
14394;SDS011;7282;49.204;10.652;2023-04-28T01:40:31;8.30;;;7.20;;
14394;SDS011;7282;49.204;10.652;2023-04-28T01:42:57;9.17;;;8.23;;
14394;SDS011;7282;49.204;10.652;2023-04-28T01:45:24;8.83;;;7.97;;
14394;SDS011;7282;49.204;10.652;2023-04-28T01:47:51;9.00;;;7.97;;
14394;SDS011;7282;49.204;10.652;2023-04-28T01:50:17;9.10;;;8.10;;
14394;SDS011;7282;49.204;10.652;2023-04-28T01:52:44;8.40;;;7.50;;
14394;SDS011;7282;49.204;10.652;2023-04-28T01:55:11;8.80;;;7.90;;
14394;SDS011;7282;49.204;10.652;2023-04-28T01:57:38;10.03;;;8.33;;
14394;SDS011;7282;49.204;10.652;2023-04-28T02:00:05;9.57;;;7.60;;
14394;SDS011;7282;49.204;10.652;2023-04-28T02:02:32;9.87;;;8.40;;
14394;SDS011;7282;49.204;10.652;2023-04-28T02:04:58;9.77;;;8.77;;
14394;SDS011;7282;49.204;10.652;2023-04-28T02:07:25;9.83;;;8.07;;
14394;SDS011;7282;49.204;10.652;2023-04-28T02:09:52;9.77;;;8.57;;
14394;SDS011;7282;49.204;10.652;2023-04-28T02:12:18;9.03;;;8.07;;
14394;SDS011;7282;49.204;10.652;2023-04-28T02:14:45;9.57;;;8.57;;
14394;SDS011;7282;49.204;10.652;2023-04-28T02:17:12;11.43;;;8.43;;
14394;SDS011;7282;49.204;10.652;2023-04-28T02:19:38;10.30;;;8.67;;
14394;SDS011;7282;49.204;10.652;2023-04-28T02:22:05;10.33;;;7.97;;
14394;SDS011;7282;49.204;10.652;2023-04-28T02:24:35;10.20;;;8.47;;
14394;SDS011;7282;49.204;10.652;2023-04-28T02:27:03;9.90;;;8.90;;
14394;SDS011;7282;49.204;10.652;2023-04-28T02:29:30;10.80;;;9.23;;
14394;SDS011;7282;49.204;10.652;2023-04-28T02:31:57;11.33;;;8.00;;
14394;SDS011;7282;49.204;10.652;2023-04-28T02:34:24;11.37;;;8.67;;
14394;SDS011;7282;49.204;10.652;2023-04-28T02:36:51;9.97;;;8.20;;
14394;SDS011;7282;49.204;10.652;2023-04-28T02:39:17;7.80;;;7.10;;
14394;SDS011;7282;49.204;10.652;2023-04-28T02:41:46;9.80;;;8.77;;
14394;SDS011;7282;49.204;10.652;2023-04-28T02:44:12;10.13;;;9.00;;
14394;SDS011;7282;49.204;10.652;2023-04-28T02:46:39;9.80;;;8.80;;
14394;SDS011;7282;49.204;10.652;2023-04-28T02:49:06;12.47;;;9.00;;
14394;SDS011;7282;49.204;10.652;2023-04-28T02:51:33;9.00;;;8.10;;
14394;SDS011;7282;49.204;10.652;2023-04-28T02:53:59;8.27;;;7.37;;
14394;SDS011;7282;49.204;10.652;2023-04-28T02:56:26;9.83;;;8.13;;
14394;SDS011;7282;49.204;10.652;2023-04-28T02:58:59;10.57;;;8.73;;
14394;SDS011;7282;49.204;10.652;2023-04-28T03:01:23;8.47;;;7.57;;
14394;SDS011;7282;49.204;10.652;2023-04-28T03:03:50;9.07;;;8.10;;
14394;SDS011;7282;49.204;10.652;2023-04-28T03:06:16;8.27;;;7.30;;
14394;SDS011;7282;49.204;10.652;2023-04-28T03:08:43;8.40;;;7.63;;
14394;SDS011;7282;49.204;10.652;2023-04-28T03:11:10;11.63;;;8.40;;
14394;SDS011;7282;49.204;10.652;2023-04-28T03:13:36;8.60;;;7.80;;
14394;SDS011;7282;49.204;10.652;2023-04-28T03:16:03;9.30;;;8.33;;
14394;SDS011;7282;49.204;10.652;2023-04-28T03:18:30;8.83;;;7.90;;
14394;SDS011;7282;49.204;10.652;2023-04-28T03:20:57;10.07;;;7.93;;
14394;SDS011;7282;49.204;10.652;2023-04-28T03:23:23;8.47;;;7.67;;
14394;SDS011;7282;49.204;10.652;2023-04-28T03:25:50;9.10;;;8.20;;
14394;SDS011;7282;49.204;10.652;2023-04-28T03:28:17;9.00;;;8.10;;
14394;SDS011;7282;49.204;10.652;2023-04-28T03:30:46;8.53;;;7.70;;
14394;SDS011;7282;49.204;10.652;2023-04-28T03:33:13;8.70;;;7.80;;
14394;SDS011;7282;49.204;10.652;2023-04-28T03:35:40;8.57;;;7.67;;
14394;SDS011;7282;49.204;10.652;2023-04-28T03:38:07;9.93;;;8.37;;
14394;SDS011;7282;49.204;10.652;2023-04-28T03:40:33;8.93;;;8.13;;
14394;SDS011;7282;49.204;10.652;2023-04-28T03:43:00;8.57;;;7.70;;
14394;SDS011;7282;49.204;10.652;2023-04-28T03:45:27;9.00;;;8.07;;
14394;SDS011;7282;49.204;10.652;2023-04-28T03:47:54;8.57;;;7.63;;
14394;SDS011;7282;49.204;10.652;2023-04-28T03:50:21;11.03;;;8.03;;
14394;SDS011;7282;49.204;10.652;2023-04-28T03:52:48;9.33;;;8.03;;
14394;SDS011;7282;49.204;10.652;2023-04-28T03:55:14;8.23;;;7.43;;
14394;SDS011;7282;49.204;10.652;2023-04-28T03:57:41;11.70;;;8.07;;
14394;SDS011;7282;49.204;10.652;2023-04-28T04:00:08;10.07;;;8.57;;
14394;SDS011;7282;49.204;10.652;2023-04-28T04:02:35;9.70;;;8.50;;
14394;SDS011;7282;49.204;10.652;2023-04-28T04:05:02;8.97;;;8.13;;
14394;SDS011;7282;49.204;10.652;2023-04-28T04:07:28;9.00;;;8.10;;
14394;SDS011;7282;49.204;10.652;2023-04-28T04:09:55;9.30;;;8.27;;
14394;SDS011;7282;49.204;10.652;2023-04-28T04:12:22;9.27;;;8.37;;
14394;SDS011;7282;49.204;10.652;2023-04-28T04:14:48;9.20;;;8.20;;
14394;SDS011;7282;49.204;10.652;2023-04-28T04:17:15;9.10;;;7.97;;
14394;SDS011;7282;49.204;10.652;2023-04-28T04:19:42;8.93;;;8.03;;
14394;SDS011;7282;49.204;10.652;2023-04-28T04:22:09;9.87;;;8.17;;
14394;SDS011;7282;49.204;10.652;2023-04-28T04:24:35;8.33;;;7.53;;
14394;SDS011;7282;49.204;10.652;2023-04-28T04:27:02;8.37;;;7.50;;
14394;SDS011;7282;49.204;10.652;2023-04-28T04:29:29;9.07;;;8.07;;
14394;SDS011;7282;49.204;10.652;2023-04-28T04:31:56;10.00;;;8.13;;
14394;SDS011;7282;49.204;10.652;2023-04-28T04:34:23;10.73;;;8.17;;
14394;SDS011;7282;49.204;10.652;2023-04-28T04:36:50;9.43;;;8.33;;
14394;SDS011;7282;49.204;10.652;2023-04-28T04:39:16;9.20;;;8.30;;
14394;SDS011;7282;49.204;10.652;2023-04-28T04:41:43;9.93;;;8.10;;
14394;SDS011;7282;49.204;10.652;2023-04-28T04:44:10;8.77;;;7.83;;
14394;SDS011;7282;49.204;10.652;2023-04-28T04:46:37;8.30;;;7.50;;
14394;SDS011;7282;49.204;10.652;2023-04-28T04:49:03;8.80;;;7.80;;
14394;SDS011;7282;49.204;10.652;2023-04-28T04:51:30;8.37;;;7.50;;
14394;SDS011;7282;49.204;10.652;2023-04-28T04:54:01;8.20;;;7.03;;
14394;SDS011;7282;49.204;10.652;2023-04-28T04:56:25;8.23;;;7.43;;
14394;SDS011;7282;49.204;10.652;2023-04-28T04:58:52;8.70;;;7.90;;
14394;SDS011;7282;49.204;10.652;2023-04-28T05:01:19;7.67;;;6.87;;
14394;SDS011;7282;49.204;10.652;2023-04-28T05:03:46;8.77;;;6.77;;
14394;SDS011;7282;49.204;10.652;2023-04-28T05:06:12;7.43;;;6.70;;
14394;SDS011;7282;49.204;10.652;2023-04-28T05:08:39;8.93;;;7.17;;
14394;SDS011;7282;49.204;10.652;2023-04-28T05:11:06;8.77;;;7.10;;
14394;SDS011;7282;49.204;10.652;2023-04-28T05:13:32;8.03;;;7.23;;
14394;SDS011;7282;49.204;10.652;2023-04-28T05:15:59;8.33;;;7.47;;
14394;SDS011;7282;49.204;10.652;2023-04-28T05:18:26;7.10;;;6.40;;
14394;SDS011;7282;49.204;10.652;2023-04-28T05:20:53;7.57;;;6.83;;
14394;SDS011;7282;49.204;10.652;2023-04-28T05:23:19;10.80;;;8.30;;
14394;SDS011;7282;49.204;10.652;2023-04-28T05:25:46;7.70;;;6.90;;
14394;SDS011;7282;49.204;10.652;2023-04-28T05:28:13;12.33;;;8.50;;
14394;SDS011;7282;49.204;10.652;2023-04-28T05:30:39;10.53;;;8.20;;
14394;SDS011;7282;49.204;10.652;2023-04-28T05:33:06;10.43;;;8.60;;
14394;SDS011;7282;49.204;10.652;2023-04-28T05:35:33;8.40;;;7.57;;
14394;SDS011;7282;49.204;10.652;2023-04-28T05:37:59;8.10;;;7.30;;
14394;SDS011;7282;49.204;10.652;2023-04-28T05:40:26;7.93;;;6.77;;
14394;SDS011;7282;49.204;10.652;2023-04-28T05:42:54;7.90;;;7.10;;
14394;SDS011;7282;49.204;10.652;2023-04-28T05:45:21;9.20;;;7.53;;
14394;SDS011;7282;49.204;10.652;2023-04-28T05:47:47;8.43;;;7.60;;
14394;SDS011;7282;49.204;10.652;2023-04-28T05:50:14;10.20;;;8.40;;
14394;SDS011;7282;49.204;10.652;2023-04-28T05:52:41;8.30;;;7.50;;
14394;SDS011;7282;49.204;10.652;2023-04-28T05:55:08;9.83;;;8.50;;
14394;SDS011;7282;49.204;10.652;2023-04-28T05:57:35;7.53;;;6.80;;
14394;SDS011;7282;49.204;10.652;2023-04-28T06:00:02;8.23;;;7.40;;
14394;SDS011;7282;49.204;10.652;2023-04-28T06:02:29;8.10;;;7.40;;
14394;SDS011;7282;49.204;10.652;2023-04-28T06:04:56;9.10;;;8.13;;
14394;SDS011;7282;49.204;10.652;2023-04-28T06:07:22;9.20;;;8.30;;
14394;SDS011;7282;49.204;10.652;2023-04-28T06:09:49;8.50;;;7.63;;
14394;SDS011;7282;49.204;10.652;2023-04-28T06:12:16;9.93;;;8.83;;
14394;SDS011;7282;49.204;10.652;2023-04-28T06:14:42;8.73;;;7.83;;
14394;SDS011;7282;49.204;10.652;2023-04-28T06:17:09;8.40;;;7.60;;
14394;SDS011;7282;49.204;10.652;2023-04-28T06:19:36;8.20;;;7.40;;
14394;SDS011;7282;49.204;10.652;2023-04-28T06:22:02;8.90;;;7.47;;
14394;SDS011;7282;49.204;10.652;2023-04-28T06:24:29;8.63;;;7.70;;
14394;SDS011;7282;49.204;10.652;2023-04-28T06:26:56;9.03;;;8.13;;
14394;SDS011;7282;49.204;10.652;2023-04-28T06:29:22;9.67;;;8.37;;
14394;SDS011;7282;49.204;10.652;2023-04-28T06:31:49;8.80;;;7.90;;
14394;SDS011;7282;49.204;10.652;2023-04-28T06:34:17;10.67;;;8.13;;
14394;SDS011;7282;49.204;10.652;2023-04-28T06:36:44;9.67;;;8.20;;
14394;SDS011;7282;49.204;10.652;2023-04-28T06:39:10;10.03;;;8.47;;
14394;SDS011;7282;49.204;10.652;2023-04-28T06:41:37;8.77;;;7.87;;
14394;SDS011;7282;49.204;10.652;2023-04-28T06:44:04;9.87;;;8.60;;
14394;SDS011;7282;49.204;10.652;2023-04-28T06:46:31;11.40;;;8.73;;
14394;SDS011;7282;49.204;10.652;2023-04-28T06:48:57;9.20;;;8.30;;
14394;SDS011;7282;49.204;10.652;2023-04-28T06:51:24;9.83;;;8.10;;
14394;SDS011;7282;49.204;10.652;2023-04-28T06:53:51;8.90;;;7.90;;
14394;SDS011;7282;49.204;10.652;2023-04-28T06:56:18;9.53;;;8.60;;
14394;SDS011;7282;49.204;10.652;2023-04-28T06:58:45;8.73;;;7.83;;
14394;SDS011;7282;49.204;10.652;2023-04-28T07:01:12;10.23;;;7.97;;
14394;SDS011;7282;49.204;10.652;2023-04-28T07:03:38;9.27;;;8.37;;
14394;SDS011;7282;49.204;10.652;2023-04-28T07:06:05;9.70;;;8.67;;
14394;SDS011;7282;49.204;10.652;2023-04-28T07:08:32;10.73;;;8.60;;
14394;SDS011;7282;49.204;10.652;2023-04-28T07:10:59;9.50;;;8.60;;
14394;SDS011;7282;49.204;10.652;2023-04-28T07:13:28;9.97;;;8.77;;
14394;SDS011;7282;49.204;10.652;2023-04-28T07:15:55;9.90;;;8.10;;
14394;SDS011;7282;49.204;10.652;2023-04-28T07:18:21;9.50;;;8.60;;
14394;SDS011;7282;49.204;10.652;2023-04-28T07:20:48;10.10;;;8.37;;
14394;SDS011;7282;49.204;10.652;2023-04-28T07:23:15;8.60;;;7.80;;
14394;SDS011;7282;49.204;10.652;2023-04-28T07:25:42;9.03;;;8.27;;
14394;SDS011;7282;49.204;10.652;2023-04-28T07:28:09;8.20;;;7.40;;
14394;SDS011;7282;49.204;10.652;2023-04-28T07:30:35;8.93;;;8.03;;
14394;SDS011;7282;49.204;10.652;2023-04-28T07:33:02;8.10;;;7.30;;
14394;SDS011;7282;49.204;10.652;2023-04-28T07:35:29;8.47;;;7.60;;
14394;SDS011;7282;49.204;10.652;2023-04-28T07:37:55;8.27;;;7.43;;
14394;SDS011;7282;49.204;10.652;2023-04-28T07:40:23;8.73;;;7.90;;
14394;SDS011;7282;49.204;10.652;2023-04-28T07:42:49;9.03;;;8.13;;
14394;SDS011;7282;49.204;10.652;2023-04-28T07:45:17;9.47;;;8.57;;
14394;SDS011;7282;49.204;10.652;2023-04-28T07:47:43;9.17;;;8.20;;
14394;SDS011;7282;49.204;10.652;2023-04-28T07:50:13;12.23;;;9.90;;
14394;SDS011;7282;49.204;10.652;2023-04-28T07:52:41;12.07;;;9.63;;
14394;SDS011;7282;49.204;10.652;2023-04-28T07:55:08;9.30;;;8.40;;
14394;SDS011;7282;49.204;10.652;2023-04-28T07:57:34;9.83;;;8.90;;
14394;SDS011;7282;49.204;10.652;2023-04-28T08:00:02;10.07;;;9.07;;
14394;SDS011;7282;49.204;10.652;2023-04-28T08:02:28;8.80;;;8.10;;
14394;SDS011;7282;49.204;10.652;2023-04-28T08:04:55;9.47;;;8.50;;
14394;SDS011;7282;49.204;10.652;2023-04-28T08:07:22;9.93;;;9.03;;
14394;SDS011;7282;49.204;10.652;2023-04-28T08:09:49;9.83;;;8.80;;
14394;SDS011;7282;49.204;10.652;2023-04-28T08:12:16;10.77;;;9.77;;
14394;SDS011;7282;49.204;10.652;2023-04-28T08:14:43;11.13;;;9.43;;
14394;SDS011;7282;49.204;10.652;2023-04-28T08:17:10;10.33;;;8.97;;
14394;SDS011;7282;49.204;10.652;2023-04-28T08:19:37;11.07;;;9.90;;
14394;SDS011;7282;49.204;10.652;2023-04-28T08:22:04;10.63;;;9.53;;
14394;SDS011;7282;49.204;10.652;2023-04-28T08:24:32;10.60;;;9.60;;
14394;SDS011;7282;49.204;10.652;2023-04-28T08:27:01;11.43;;;10.20;;
14394;SDS011;7282;49.204;10.652;2023-04-28T08:29:31;11.37;;;9.77;;
14394;SDS011;7282;49.204;10.652;2023-04-28T08:31:58;11.93;;;10.70;;
14394;SDS011;7282;49.204;10.652;2023-04-28T08:34:26;10.63;;;9.63;;
14394;SDS011;7282;49.204;10.652;2023-04-28T08:36:52;11.97;;;10.77;;
14394;SDS011;7282;49.204;10.652;2023-04-28T08:39:19;12.77;;;10.50;;
14394;SDS011;7282;49.204;10.652;2023-04-28T08:41:48;11.70;;;10.33;;
14394;SDS011;7282;49.204;10.652;2023-04-28T08:44:15;10.87;;;9.77;;
14394;SDS011;7282;49.204;10.652;2023-04-28T08:46:42;11.20;;;10.17;;
14394;SDS011;7282;49.204;10.652;2023-04-28T08:49:14;11.03;;;9.93;;
14394;SDS011;7282;49.204;10.652;2023-04-28T08:51:44;11.83;;;10.73;;
14394;SDS011;7282;49.204;10.652;2023-04-28T08:54:13;12.47;;;11.17;;
14394;SDS011;7282;49.204;10.652;2023-04-28T08:56:41;12.37;;;10.90;;
14394;SDS011;7282;49.204;10.652;2023-04-28T08:59:09;12.23;;;11.07;;
14394;SDS011;7282;49.204;10.652;2023-04-28T09:01:36;12.27;;;11.00;;
14394;SDS011;7282;49.204;10.652;2023-04-28T09:04:03;12.10;;;11.00;;
14394;SDS011;7282;49.204;10.652;2023-04-28T09:06:31;12.00;;;10.90;;
14394;SDS011;7282;49.204;10.652;2023-04-28T09:09:16;11.97;;;10.80;;
14394;SDS011;7282;49.204;10.652;2023-04-28T09:11:27;12.37;;;11.17;;
14394;SDS011;7282;49.204;10.652;2023-04-28T09:13:54;12.37;;;11.17;;
14394;SDS011;7282;49.204;10.652;2023-04-28T09:16:22;13.80;;;11.27;;
14394;SDS011;7282;49.204;10.652;2023-04-28T09:18:58;12.07;;;10.97;;
14394;SDS011;7282;49.204;10.652;2023-04-28T09:21:23;12.70;;;11.40;;
14394;SDS011;7282;49.204;10.652;2023-04-28T09:23:49;13.33;;;12.03;;
14394;SDS011;7282;49.204;10.652;2023-04-28T09:26:17;15.80;;;11.83;;
14394;SDS011;7282;49.204;10.652;2023-04-28T09:28:44;12.23;;;11.13;;
14394;SDS011;7282;49.204;10.652;2023-04-28T09:31:23;13.23;;;11.93;;
14394;SDS011;7282;49.204;10.652;2023-04-28T09:33:56;12.60;;;11.40;;
14394;SDS011;7282;49.204;10.652;2023-04-28T09:36:26;12.00;;;10.90;;
14394;SDS011;7282;49.204;10.652;2023-04-28T09:38:56;12.03;;;10.93;;
14394;SDS011;7282;49.204;10.652;2023-04-28T09:41:24;11.77;;;10.67;;
14394;SDS011;7282;49.204;10.652;2023-04-28T09:43:51;11.53;;;10.43;;
14394;SDS011;7282;49.204;10.652;2023-04-28T09:46:27;10.93;;;9.90;;
14394;SDS011;7282;49.204;10.652;2023-04-28T09:48:46;10.30;;;9.40;;
14394;SDS011;7282;49.204;10.652;2023-04-28T09:51:19;10.70;;;9.70;;
14394;SDS011;7282;49.204;10.652;2023-04-28T09:53:42;10.50;;;9.03;;
14394;SDS011;7282;49.204;10.652;2023-04-28T09:56:09;9.53;;;8.73;;
14394;SDS011;7282;49.204;10.652;2023-04-28T09:58:36;9.87;;;8.97;;
14394;SDS011;7282;49.204;10.652;2023-04-28T10:01:04;12.77;;;11.07;;
14394;SDS011;7282;49.204;10.652;2023-04-28T10:03:32;10.27;;;9.27;;
14394;SDS011;7282;49.204;10.652;2023-04-28T10:05:59;10.40;;;9.40;;
14394;SDS011;7282;49.204;10.652;2023-04-28T10:08:27;9.90;;;9.10;;
14394;SDS011;7282;49.204;10.652;2023-04-28T10:10:54;9.63;;;8.73;;
14394;SDS011;7282;49.204;10.652;2023-04-28T10:13:22;9.53;;;8.63;;
14394;SDS011;7282;49.204;10.652;2023-04-28T10:15:49;9.43;;;8.63;;
14394;SDS011;7282;49.204;10.652;2023-04-28T10:18:16;9.43;;;8.63;;
14394;SDS011;7282;49.204;10.652;2023-04-28T10:20:48;9.93;;;9.03;;
14394;SDS011;7282;49.204;10.652;2023-04-28T10:25:57;8.87;;;8.07;;
14394;SDS011;7282;49.204;10.652;2023-04-28T10:28:25;9.50;;;8.57;;
14394;SDS011;7282;49.204;10.652;2023-04-28T10:31:11;10.23;;;9.07;;
14394;SDS011;7282;49.204;10.652;2023-04-28T10:33:23;9.90;;;8.87;;
14394;SDS011;7282;49.204;10.652;2023-04-28T10:35:51;10.47;;;9.37;;
14394;SDS011;7282;49.204;10.652;2023-04-28T10:38:18;10.90;;;9.80;;
14394;SDS011;7282;49.204;10.652;2023-04-28T10:40:47;10.20;;;9.30;;
14394;SDS011;7282;49.204;10.652;2023-04-28T10:56:16;9.30;;;8.50;;
14394;SDS011;7282;49.204;10.652;2023-04-28T10:58:45;9.73;;;8.87;;
14394;SDS011;7282;49.204;10.652;2023-04-28T11:03:48;9.47;;;8.57;;
14394;SDS011;7282;49.204;10.652;2023-04-28T11:06:33;9.00;;;8.20;;
14394;SDS011;7282;49.204;10.652;2023-04-28T11:14:33;9.60;;;8.77;;
14394;SDS011;7282;49.204;10.652;2023-04-28T11:17:01;8.87;;;8.07;;
14394;SDS011;7282;49.204;10.652;2023-04-28T11:19:31;9.00;;;8.20;;
14394;SDS011;7282;49.204;10.652;2023-04-28T11:22:00;8.73;;;8.03;;
14394;SDS011;7282;49.204;10.652;2023-04-28T11:24:27;8.60;;;7.90;;
14394;SDS011;7282;49.204;10.652;2023-04-28T11:26:57;11.93;;;9.63;;
14394;SDS011;7282;49.204;10.652;2023-04-28T11:29:33;8.93;;;8.03;;
14394;SDS011;7282;49.204;10.652;2023-04-28T11:32:01;8.67;;;7.90;;
14394;SDS011;7282;49.204;10.652;2023-04-28T11:34:28;8.00;;;7.30;;
14394;SDS011;7282;49.204;10.652;2023-04-28T11:36:55;8.47;;;7.77;;
14394;SDS011;7282;49.204;10.652;2023-04-28T11:39:25;8.27;;;7.57;;
14394;SDS011;7282;49.204;10.652;2023-04-28T11:41:53;8.07;;;7.27;;
14394;SDS011;7282;49.204;10.652;2023-04-28T11:44:21;8.90;;;8.13;;
14394;SDS011;7282;49.204;10.652;2023-04-28T11:46:48;7.63;;;6.93;;
14394;SDS011;7282;49.204;10.652;2023-04-28T11:49:22;8.00;;;7.30;;
14394;SDS011;7282;49.204;10.652;2023-04-28T11:51:54;7.60;;;6.90;;
14394;SDS011;7282;49.204;10.652;2023-04-28T11:54:24;6.87;;;6.27;;
14394;SDS011;7282;49.204;10.652;2023-04-28T11:56:51;7.10;;;6.50;;
14394;SDS011;7282;49.204;10.652;2023-04-28T11:59:22;7.10;;;6.50;;
14394;SDS011;7282;49.204;10.652;2023-04-28T12:01:49;7.20;;;6.53;;
14394;SDS011;7282;49.204;10.652;2023-04-28T12:05:17;7.70;;;7.00;;
14394;SDS011;7282;49.204;10.652;2023-04-28T12:07:00;7.53;;;6.93;;
14394;SDS011;7282;49.204;10.652;2023-04-28T12:09:25;6.50;;;6.00;;
14394;SDS011;7282;49.204;10.652;2023-04-28T12:11:52;8.30;;;7.60;;
14394;SDS011;7282;49.204;10.652;2023-04-28T12:14:19;6.43;;;5.93;;
14394;SDS011;7282;49.204;10.652;2023-04-28T12:16:46;6.37;;;5.87;;
14394;SDS011;7282;49.204;10.652;2023-04-28T12:19:14;5.77;;;5.30;;
14394;SDS011;7282;49.204;10.652;2023-04-28T12:21:42;6.73;;;6.23;;
14394;SDS011;7282;49.204;10.652;2023-04-28T12:24:17;6.33;;;5.83;;
14394;SDS011;7282;49.204;10.652;2023-04-28T12:26:40;7.30;;;6.70;;
14394;SDS011;7282;49.204;10.652;2023-04-28T12:29:07;6.33;;;5.83;;
14394;SDS011;7282;49.204;10.652;2023-04-28T12:31:48;6.80;;;6.20;;
14394;SDS011;7282;49.204;10.652;2023-04-28T12:34:15;7.30;;;6.70;;
14394;SDS011;7282;49.204;10.652;2023-04-28T12:36:42;7.60;;;7.00;;
14394;SDS011;7282;49.204;10.652;2023-04-28T12:39:14;8.47;;;7.67;;
14394;SDS011;7282;49.204;10.652;2023-04-28T12:41:42;7.50;;;6.87;;
14394;SDS011;7282;49.204;10.652;2023-04-28T12:44:09;8.37;;;7.57;;
14394;SDS011;7282;49.204;10.652;2023-04-28T12:46:36;8.27;;;7.67;;
14394;SDS011;7282;49.204;10.652;2023-04-28T12:49:03;8.83;;;8.03;;
14394;SDS011;7282;49.204;10.652;2023-04-28T12:51:30;7.60;;;6.90;;
14394;SDS011;7282;49.204;10.652;2023-04-28T12:53:57;10.13;;;9.13;;
14394;SDS011;7282;49.204;10.652;2023-04-28T12:56:24;9.30;;;8.40;;
14394;SDS011;7282;49.204;10.652;2023-04-28T12:58:50;9.50;;;8.60;;
14394;SDS011;7282;49.204;10.652;2023-04-28T13:01:17;9.10;;;8.30;;
14394;SDS011;7282;49.204;10.652;2023-04-28T13:03:44;7.67;;;6.97;;
14394;SDS011;7282;49.204;10.652;2023-04-28T13:06:12;8.40;;;7.60;;
14394;SDS011;7282;49.204;10.652;2023-04-28T13:08:40;7.43;;;6.83;;
14394;SDS011;7282;49.204;10.652;2023-04-28T13:11:07;6.87;;;6.27;;
14394;SDS011;7282;49.204;10.652;2023-04-28T13:13:35;6.20;;;5.70;;
14394;SDS011;7282;49.204;10.652;2023-04-28T13:16:02;6.43;;;5.93;;
14394;SDS011;7282;49.204;10.652;2023-04-28T13:18:30;5.93;;;5.43;;
14394;SDS011;7282;49.204;10.652;2023-04-28T13:20:57;6.13;;;5.63;;
14394;SDS011;7282;49.204;10.652;2023-04-28T13:23:24;6.90;;;6.20;;
14394;SDS011;7282;49.204;10.652;2023-04-28T13:25:50;4.30;;;3.90;;
14394;SDS011;7282;49.204;10.652;2023-04-28T13:28:17;4.10;;;3.80;;
14394;SDS011;7282;49.204;10.652;2023-04-28T13:30:44;4.60;;;4.20;;
14394;SDS011;7282;49.204;10.652;2023-04-28T13:33:10;4.63;;;4.33;;
14394;SDS011;7282;49.204;10.652;2023-04-28T13:35:37;4.03;;;3.73;;
14394;SDS011;7282;49.204;10.652;2023-04-28T13:38:04;4.77;;;4.37;;
14394;SDS011;7282;49.204;10.652;2023-04-28T13:40:30;4.80;;;4.40;;
14394;SDS011;7282;49.204;10.652;2023-04-28T13:42:57;4.60;;;4.20;;
14394;SDS011;7282;49.204;10.652;2023-04-28T13:45:24;4.37;;;4.07;;
14394;SDS011;7282;49.204;10.652;2023-04-28T13:47:53;5.47;;;5.07;;
14394;SDS011;7282;49.204;10.652;2023-04-28T13:50:19;5.73;;;5.20;;
14394;SDS011;7282;49.204;10.652;2023-04-28T13:52:46;5.50;;;5.10;;
14394;SDS011;7282;49.204;10.652;2023-04-28T13:55:13;5.07;;;4.67;;
14394;SDS011;7282;49.204;10.652;2023-04-28T13:57:40;5.03;;;4.63;;
14394;SDS011;7282;49.204;10.652;2023-04-28T14:00:07;5.20;;;4.50;;
14394;SDS011;7282;49.204;10.652;2023-04-28T14:02:33;5.23;;;4.83;;
14394;SDS011;7282;49.204;10.652;2023-04-28T14:05:00;4.93;;;4.53;;
14394;SDS011;7282;49.204;10.652;2023-04-28T14:07:27;5.70;;;5.23;;
14394;SDS011;7282;49.204;10.652;2023-04-28T14:09:53;5.90;;;5.37;;
14394;SDS011;7282;49.204;10.652;2023-04-28T14:12:20;5.47;;;5.07;;
14394;SDS011;7282;49.204;10.652;2023-04-28T14:14:47;6.50;;;5.90;;
14394;SDS011;7282;49.204;10.652;2023-04-28T14:17:14;7.47;;;6.77;;
14394;SDS011;7282;49.204;10.652;2023-04-28T14:19:41;7.23;;;6.53;;
14394;SDS011;7282;49.204;10.652;2023-04-28T14:22:07;7.07;;;6.47;;
14394;SDS011;7282;49.204;10.652;2023-04-28T14:24:34;7.30;;;6.70;;
14394;SDS011;7282;49.204;10.652;2023-04-28T14:27:01;7.80;;;7.00;;
14394;SDS011;7282;49.204;10.652;2023-04-28T14:29:28;7.10;;;6.40;;
14394;SDS011;7282;49.204;10.652;2023-04-28T14:31:55;6.00;;;5.50;;
14394;SDS011;7282;49.204;10.652;2023-04-28T14:34:21;5.83;;;5.33;;
14394;SDS011;7282;49.204;10.652;2023-04-28T14:36:49;6.00;;;5.50;;
14394;SDS011;7282;49.204;10.652;2023-04-28T14:39:16;4.93;;;4.60;;
14394;SDS011;7282;49.204;10.652;2023-04-28T14:41:43;5.10;;;4.70;;
14394;SDS011;7282;49.204;10.652;2023-04-28T14:44:10;5.30;;;4.90;;
14394;SDS011;7282;49.204;10.652;2023-04-28T14:46:37;6.87;;;5.60;;
14394;SDS011;7282;49.204;10.652;2023-04-28T14:49:04;5.80;;;5.30;;
14394;SDS011;7282;49.204;10.652;2023-04-28T14:51:31;6.30;;;5.80;;
14394;SDS011;7282;49.204;10.652;2023-04-28T14:53:57;6.10;;;5.60;;
14394;SDS011;7282;49.204;10.652;2023-04-28T14:56:24;5.77;;;5.27;;
14394;SDS011;7282;49.204;10.652;2023-04-28T14:58:51;5.23;;;4.83;;
14394;SDS011;7282;49.204;10.652;2023-04-28T15:01:19;4.63;;;4.23;;
14394;SDS011;7282;49.204;10.652;2023-04-28T15:03:45;4.67;;;4.27;;
14394;SDS011;7282;49.204;10.652;2023-04-28T15:06:12;4.40;;;4.10;;